sensor_id;sensor_type;location;lat;lon;timestamp;pressure;altitude;pressure_sealevel;temperature;humidity
5679;BME280;2862;52.560;13.566;2023-03-20T00:03:33;100675.78;;;12.79;83.40
5679;BME280;2862;52.560;13.566;2023-03-20T00:13:36;100675.38;;;12.74;85.01
5679;BME280;2862;52.560;13.566;2023-03-20T00:23:42;100678.03;;;12.64;84.86
5679;BME280;2862;52.560;13.566;2023-03-20T00:33:45;100682.97;;;12.49;86.12
5679;BME280;2862;52.560;13.566;2023-03-20T00:43:52;100673.13;;;12.40;85.28
5679;BME280;2862;52.560;13.566;2023-03-20T00:53:55;100673.38;;;12.18;86.41
5679;BME280;2862;52.560;13.566;2023-03-20T01:04:00;100665.72;;;12.04;87.42
5679;BME280;2862;52.560;13.566;2023-03-20T01:14:04;100665.16;;;11.90;89.33
5679;BME280;2862;52.560;13.566;2023-03-20T01:24:08;100672.41;;;11.79;88.19
5679;BME280;2862;52.560;13.566;2023-03-20T01:34:12;100673.66;;;11.65;89.58
5679;BME280;2862;52.560;13.566;2023-03-20T01:44:21;100675.00;;;11.50;91.05
5679;BME280;2862;52.560;13.566;2023-03-20T01:54:33;100678.22;;;11.43;91.90
5679;BME280;2862;52.560;13.566;2023-03-20T02:04:45;100669.16;;;11.35;92.08
5679;BME280;2862;52.560;13.566;2023-03-20T02:14:50;100678.16;;;11.34;92.47
5679;BME280;2862;52.560;13.566;2023-03-20T02:25:44;100683.13;;;11.38;93.73
5679;BME280;2862;52.560;13.566;2023-03-20T02:36:10;100674.41;;;11.46;92.37
5679;BME280;2862;52.560;13.566;2023-03-20T02:46:26;100674.41;;;11.46;92.97
5679;BME280;2862;52.560;13.566;2023-03-20T02:56:34;100675.34;;;11.35;93.21
5679;BME280;2862;52.560;13.566;2023-03-20T03:06:42;100677.63;;;11.40;93.67
5679;BME280;2862;52.560;13.566;2023-03-20T03:16:48;100678.03;;;11.35;92.99
5679;BME280;2862;52.560;13.566;2023-03-20T03:26:55;100670.97;;;11.25;94.05
5679;BME280;2862;52.560;13.566;2023-03-20T03:37:03;100684.13;;;11.37;93.68
5679;BME280;2862;52.560;13.566;2023-03-20T03:47:11;100690.63;;;11.44;93.88
5679;BME280;2862;52.560;13.566;2023-03-20T03:57:20;100692.00;;;11.39;93.55
5679;BME280;2862;52.560;13.566;2023-03-20T04:07:28;100687.78;;;11.36;94.14
5679;BME280;2862;52.560;13.566;2023-03-20T04:17:31;100698.88;;;11.32;94.79
5679;BME280;2862;52.560;13.566;2023-03-20T04:27:35;100704.00;;;11.14;95.84
5679;BME280;2862;52.560;13.566;2023-03-20T04:37:46;100710.97;;;11.05;96.12
5679;BME280;2862;52.560;13.566;2023-03-20T04:47:51;100717.69;;;11.00;96.61
5679;BME280;2862;52.560;13.566;2023-03-20T04:57:56;100721.22;;;11.00;97.35
5679;BME280;2862;52.560;13.566;2023-03-20T05:08:02;100719.00;;;11.05;96.59
5679;BME280;2862;52.560;13.566;2023-03-20T05:18:09;100719.13;;;11.55;95.76
5679;BME280;2862;52.560;13.566;2023-03-20T05:28:42;100722.28;;;11.39;94.27
5679;BME280;2862;52.560;13.566;2023-03-20T05:39:11;100720.69;;;11.27;96.36
5679;BME280;2862;52.560;13.566;2023-03-20T05:49:33;100723.50;;;11.26;96.53
5679;BME280;2862;52.560;13.566;2023-03-20T05:59:55;100717.31;;;11.25;97.02
5679;BME280;2862;52.560;13.566;2023-03-20T06:10:15;100722.38;;;11.28;97.16
5679;BME280;2862;52.560;13.566;2023-03-20T06:20:22;100741.09;;;11.28;97.55
5679;BME280;2862;52.560;13.566;2023-03-20T06:30:27;100755.88;;;11.23;99.08
5679;BME280;2862;52.560;13.566;2023-03-20T06:40:31;100784.19;;;11.04;100.00
5679;BME280;2862;52.560;13.566;2023-03-20T06:50:36;100793.00;;;11.16;99.58
5679;BME280;2862;52.560;13.566;2023-03-20T07:00:40;100798.28;;;11.06;99.09
5679;BME280;2862;52.560;13.566;2023-03-20T07:10:44;100800.38;;;11.03;99.09
5679;BME280;2862;52.560;13.566;2023-03-20T07:20:50;100807.81;;;10.99;98.23
5679;BME280;2862;52.560;13.566;2023-03-20T07:30:56;100823.41;;;10.94;99.10
5679;BME280;2862;52.560;13.566;2023-03-20T07:40:59;100831.38;;;10.73;98.85
5679;BME280;2862;52.560;13.566;2023-03-20T07:51:06;100837.38;;;10.54;98.28
5679;BME280;2862;52.560;13.566;2023-03-20T08:01:10;100848.34;;;10.40;100.00
5679;BME280;2862;52.560;13.566;2023-03-20T08:11:14;100841.34;;;10.71;98.26
5679;BME280;2862;52.560;13.566;2023-03-20T08:21:18;100856.09;;;10.98;96.12
5679;BME280;2862;52.560;13.566;2023-03-20T08:31:22;100858.31;;;11.46;93.22
5679;BME280;2862;52.560;13.566;2023-03-20T08:41:25;100866.63;;;11.10;93.72
5679;BME280;2862;52.560;13.566;2023-03-20T08:51:29;100875.00;;;10.85;94.60
5679;BME280;2862;52.560;13.566;2023-03-20T09:01:32;100851.44;;;12.65;85.81
5679;BME280;2862;52.560;13.566;2023-03-20T09:11:50;100848.72;;;13.91;78.57
5679;BME280;2862;52.560;13.566;2023-03-20T09:21:53;100856.84;;;13.62;76.76
5679;BME280;2862;52.560;13.566;2023-03-20T09:31:57;100854.41;;;14.16;73.36
5679;BME280;2862;52.560;13.566;2023-03-20T09:42:12;100863.56;;;13.95;71.65
5679;BME280;2862;52.560;13.566;2023-03-20T09:52:33;100864.09;;;13.42;73.52
5679;BME280;2862;52.560;13.566;2023-03-20T10:02:50;100860.94;;;13.18;74.08
5679;BME280;2862;52.560;13.566;2023-03-20T10:13:02;100854.88;;;13.16;73.42
5679;BME280;2862;52.560;13.566;2023-03-20T10:23:16;100865.03;;;13.12;73.02
5679;BME280;2862;52.560;13.566;2023-03-20T10:33:35;100867.13;;;12.89;71.63
5679;BME280;2862;52.560;13.566;2023-03-20T10:43:43;100856.09;;;12.73;73.46
5679;BME280;2862;52.560;13.566;2023-03-20T10:53:53;100859.25;;;12.97;72.65
5679;BME280;2862;52.560;13.566;2023-03-20T11:03:58;100864.63;;;12.97;72.46
5679;BME280;2862;52.560;13.566;2023-03-20T11:14:09;100846.72;;;12.48;72.53
5679;BME280;2862;52.560;13.566;2023-03-20T11:24:26;100851.28;;;12.57;72.31
5679;BME280;2862;52.560;13.566;2023-03-20T11:34:37;100844.28;;;12.85;70.82
5679;BME280;2862;52.560;13.566;2023-03-20T11:44:41;100841.16;;;12.90;70.37
5679;BME280;2862;52.560;13.566;2023-03-20T11:54:48;100836.47;;;12.72;71.58
5679;BME280;2862;52.560;13.566;2023-03-20T12:04:52;100817.28;;;12.87;71.88
5679;BME280;2862;52.560;13.566;2023-03-20T12:15:02;100815.59;;;13.05;70.72
5679;BME280;2862;52.560;13.566;2023-03-20T12:25:17;100800.78;;;12.91;69.82
5679;BME280;2862;52.560;13.566;2023-03-20T12:35:26;100800.03;;;12.60;71.81
5679;BME280;2862;52.560;13.566;2023-03-20T12:45:32;100794.81;;;12.68;72.13
5679;BME280;2862;52.560;13.566;2023-03-20T12:55:48;100788.47;;;12.89;71.98
5679;BME280;2862;52.560;13.566;2023-03-20T13:06:00;100786.06;;;12.76;72.64
5679;BME280;2862;52.560;13.566;2023-03-20T13:16:15;100772.38;;;12.89;71.87
5679;BME280;2862;52.560;13.566;2023-03-20T13:26:32;100778.72;;;12.78;72.28
5679;BME280;2862;52.560;13.566;2023-03-20T13:36:52;100756.69;;;13.03;70.54
5679;BME280;2862;52.560;13.566;2023-03-20T13:46:59;100757.25;;;13.26;69.78
5679;BME280;2862;52.560;13.566;2023-03-20T13:57:16;100760.25;;;12.85;71.07
5679;BME280;2862;52.560;13.566;2023-03-20T14:07:27;100752.16;;;12.94;71.29
5679;BME280;2862;52.560;13.566;2023-03-20T14:17:43;100752.91;;;12.67;72.57
5679;BME280;2862;52.560;13.566;2023-03-20T14:27:53;100742.31;;;12.56;73.15
5679;BME280;2862;52.560;13.566;2023-03-20T14:38:07;100748.94;;;12.62;74.34
5679;BME280;2862;52.560;13.566;2023-03-20T14:48:25;100748.50;;;12.57;73.69
5679;BME280;2862;52.560;13.566;2023-03-20T14:58:45;100732.69;;;12.63;73.40
5679;BME280;2862;52.560;13.566;2023-03-20T15:08:54;100731.09;;;12.32;74.50
5679;BME280;2862;52.560;13.566;2023-03-20T15:19:00;100726.75;;;12.40;74.06
5679;BME280;2862;52.560;13.566;2023-03-20T15:29:10;100729.53;;;12.19;74.99
5679;BME280;2862;52.560;13.566;2023-03-20T15:39:20;100709.22;;;12.17;75.38
5679;BME280;2862;52.560;13.566;2023-03-20T15:49:24;100723.03;;;12.12;75.55
5679;BME280;2862;52.560;13.566;2023-03-20T15:59:31;100726.41;;;12.14;75.08
5679;BME280;2862;52.560;13.566;2023-03-20T16:09:42;100737.19;;;12.34;74.60
5679;BME280;2862;52.560;13.566;2023-03-20T16:19:46;100738.03;;;12.34;74.82
5679;BME280;2862;52.560;13.566;2023-03-20T16:29:49;100726.88;;;12.29;75.22
5679;BME280;2862;52.560;13.566;2023-03-20T16:50:20;100740.81;;;12.33;75.17
5679;BME280;2862;52.560;13.566;2023-03-20T17:00:28;100740.22;;;12.00;73.87
5679;BME280;2862;52.560;13.566;2023-03-20T17:10:31;100748.59;;;11.86;73.59
5679;BME280;2862;52.560;13.566;2023-03-20T17:20:35;100752.78;;;11.79;74.16
5679;BME280;2862;52.560;13.566;2023-03-20T17:30:38;100753.56;;;11.69;74.77
5679;BME280;2862;52.560;13.566;2023-03-20T17:40:43;100760.59;;;11.61;75.97
5679;BME280;2862;52.560;13.566;2023-03-20T17:50:47;100761.06;;;11.45;75.75
5679;BME280;2862;52.560;13.566;2023-03-20T18:00:53;100763.13;;;11.53;76.06
5679;BME280;2862;52.560;13.566;2023-03-20T18:10:56;100759.84;;;11.49;76.87
5679;BME280;2862;52.560;13.566;2023-03-20T18:21:01;100760.00;;;11.57;77.01
5679;BME280;2862;52.560;13.566;2023-03-20T18:31:04;100764.22;;;11.50;77.71
5679;BME280;2862;52.560;13.566;2023-03-20T18:41:08;100767.47;;;11.54;77.94
5679;BME280;2862;52.560;13.566;2023-03-20T18:51:12;100761.84;;;11.57;77.73
5679;BME280;2862;52.560;13.566;2023-03-20T19:01:17;100771.31;;;11.40;77.78
5679;BME280;2862;52.560;13.566;2023-03-20T19:11:20;100765.19;;;11.28;78.32
5679;BME280;2862;52.560;13.566;2023-03-20T19:21:24;100776.50;;;11.32;78.98
5679;BME280;2862;52.560;13.566;2023-03-20T19:31:28;100777.88;;;11.26;78.89
5679;BME280;2862;52.560;13.566;2023-03-20T19:41:32;100779.84;;;11.24;79.06
5679;BME280;2862;52.560;13.566;2023-03-20T19:51:43;100777.94;;;11.15;78.29
5679;BME280;2862;52.560;13.566;2023-03-20T20:01:56;100772.13;;;11.10;77.69
5679;BME280;2862;52.560;13.566;2023-03-20T20:11:59;100773.78;;;11.01;78.32
5679;BME280;2862;52.560;13.566;2023-03-20T20:22:06;100769.00;;;11.05;78.00
5679;BME280;2862;52.560;13.566;2023-03-20T20:32:27;100775.47;;;11.02;77.38
5679;BME280;2862;52.560;13.566;2023-03-20T20:42:31;100769.25;;;11.02;77.17
5679;BME280;2862;52.560;13.566;2023-03-20T20:52:35;100767.28;;;11.04;77.13
5679;BME280;2862;52.560;13.566;2023-03-20T21:02:41;100779.38;;;10.98;76.97
5679;BME280;2862;52.560;13.566;2023-03-20T21:12:45;100755.81;;;10.92;77.57
5679;BME280;2862;52.560;13.566;2023-03-20T21:23:01;100758.44;;;10.71;77.06
5679;BME280;2862;52.560;13.566;2023-03-20T21:33:04;100755.75;;;10.71;79.05
5679;BME280;2862;52.560;13.566;2023-03-20T21:43:09;100771.19;;;10.79;78.08
5679;BME280;2862;52.560;13.566;2023-03-20T21:53:12;100780.06;;;10.79;78.79
5679;BME280;2862;52.560;13.566;2023-03-20T22:03:38;100783.59;;;10.80;79.04
5679;BME280;2862;52.560;13.566;2023-03-20T22:14:02;100777.50;;;10.78;78.70
5679;BME280;2862;52.560;13.566;2023-03-20T22:24:27;100773.50;;;10.72;78.03
5679;BME280;2862;52.560;13.566;2023-03-20T22:34:51;100773.94;;;10.56;75.79
5679;BME280;2862;52.560;13.566;2023-03-20T22:45:16;100777.34;;;10.58;75.37
5679;BME280;2862;52.560;13.566;2023-03-20T22:55:20;100782.97;;;10.44;73.94
5679;BME280;2862;52.560;13.566;2023-03-20T23:05:24;100781.16;;;10.45;73.26
5679;BME280;2862;52.560;13.566;2023-03-20T23:15:27;100781.38;;;10.42;73.07
5679;BME280;2862;52.560;13.566;2023-03-20T23:25:35;100791.72;;;10.35;72.83
5679;BME280;2862;52.560;13.566;2023-03-20T23:35:40;100787.38;;;10.11;71.95
5679;BME280;2862;52.560;13.566;2023-03-20T23:45:48;100779.94;;;10.26;72.31
5679;BME280;2862;52.560;13.566;2023-03-20T23:55:53;100783.00;;;10.10;71.74
